Time;durP1;ratioP1;P1;durP2;ratioP2;P2;SDS_P1;SDS_P2;PMS_P1;PMS_P2;Temp;Humidity;BMP_temperature;BMP_pressure;BME280_temperature;BME280_humidity;BME280_pressure;Samples;Min_cycle;Max_cycle;Signal;HPM_P1;HPM_P2
2022/02/25 00:01:54;;;;;;;5.82;1.60;;;4.00;77.50;;;;;;9184505;19;20348;-60
2022/02/25 00:04:59;;;;;;;8.95;1.60;;;4.00;77.50;;;;;;9180345;19;20349;-62
2022/02/25 00:08:22;;;;;;;15.23;1.57;;;4.00;77.50;;;;;;9179889;19;20010;-63
2022/02/25 00:11:30;;;;;;;6.82;1.75;;;4.00;77.50;;;;;;9180857;19;20099;-61
2022/02/25 00:14:35;;;;;;;11.77;2.22;;;4.00;77.50;;;;;;9182292;19;20047;-62
2022/02/25 00:17:40;;;;;;;3.05;1.30;;;4.00;77.50;;;;;;9181395;19;20021;-64
2022/02/25 00:20:46;;;;;;;13.55;1.77;;;4.00;77.50;;;;;;9178573;19;20022;-62
2022/02/25 00:23:51;;;;;;;7.43;2.08;;;4.00;77.50;;;;;;9179342;19;20026;-61
2022/02/25 00:26:59;;;;;;;9.23;1.80;;;4.00;77.50;;;;;;9182009;19;20021;-63
2022/02/25 00:30:04;;;;;;;7.22;1.45;;;4.00;77.60;;;;;;9182272;19;20010;-62
2022/02/25 00:33:11;;;;;;;8.75;2.20;;;4.00;77.50;;;;;;9182204;19;20344;-61
2022/02/25 00:36:16;;;;;;;13.30;2.00;;;4.00;77.60;;;;;;9177865;19;20026;-61
2022/02/25 00:39:21;;;;;;;6.80;1.90;;;4.00;77.60;;;;;;9179323;19;20359;-61
2022/02/25 00:42:30;;;;;;;7.57;1.70;;;4.00;77.60;;;;;;9182446;19;20011;-61
2022/02/25 00:45:36;;;;;;;4.75;1.65;;;4.00;77.70;;;;;;9181453;19;20017;-63
2022/02/25 00:48:41;;;;;;;10.20;1.70;;;4.00;77.70;;;;;;9181081;19;20022;-62
2022/02/25 00:51:46;;;;;;;6.53;1.60;;;4.00;77.70;;;;;;9179349;19;20025;-63
2022/02/25 00:54:50;;;;;;;9.25;1.83;;;4.00;77.60;;;;;;9177874;19;20018;-63
2022/02/25 00:57:59;;;;;;;9.02;1.88;;;4.00;77.60;;;;;;9178115;19;20472;-64
2022/02/25 01:01:04;;;;;;;11.05;1.88;;;4.00;77.60;;;;;;9180473;19;20381;-63
2022/02/25 01:04:09;;;;;;;8.85;1.60;;;4.00;77.60;;;;;;9182145;19;20030;-63
2022/02/25 01:07:14;;;;;;;10.60;1.58;;;4.10;77.70;;;;;;9178786;19;20015;-64
2022/02/25 01:10:20;;;;;;;4.80;1.50;;;4.00;77.70;;;;;;9176339;19;20029;-64
2022/02/25 01:13:28;;;;;;;7.70;1.58;;;4.10;77.70;;;;;;9180243;19;20410;-63
2022/02/25 01:16:33;;;;;;;10.90;1.90;;;4.10;77.80;;;;;;9179771;19;20017;-61
2022/02/25 01:19:38;;;;;;;12.88;1.83;;;4.00;77.80;;;;;;9179119;19;20018;-61
2022/02/25 01:22:44;;;;;;;15.13;2.00;;;4.10;77.70;;;;;;9175965;19;20022;-63
2022/02/25 01:25:49;;;;;;;8.90;1.50;;;4.10;77.70;;;;;;9179229;19;20362;-62
2022/02/25 01:28:56;;;;;;;7.75;1.40;;;4.10;77.80;;;;;;9175586;19;20436;-63
2022/02/25 01:32:01;;;;;;;11.90;2.10;;;4.20;77.80;;;;;;9178274;19;20022;-62
2022/02/25 01:35:07;;;;;;;12.00;2.15;;;4.20;77.70;;;;;;9176348;19;20007;-60
2022/02/25 01:38:12;;;;;;;3.22;1.25;;;4.20;77.80;;;;;;9176985;19;20050;-62
2022/02/25 01:41:20;;;;;;;11.50;1.73;;;4.30;77.80;;;;;;9176816;19;20015;-63
2022/02/25 01:44:29;;;;;;;9.80;1.65;;;4.30;77.80;;;;;;9180950;19;20029;-61
2022/02/25 01:47:34;;;;;;;14.75;2.08;;;4.30;77.70;;;;;;9180757;19;20086;-62
2022/02/25 01:50:39;;;;;;;11.68;2.03;;;4.30;77.70;;;;;;9175454;19;20439;-62
2022/02/25 01:53:46;;;;;;;6.95;1.90;;;4.30;77.70;;;;;;9175343;19;20021;-61
2022/02/25 01:56:55;;;;;;;7.25;1.85;;;4.40;77.70;;;;;;9178003;19;20014;-62
2022/02/25 02:00:02;;;;;;;5.75;1.58;;;4.40;77.70;;;;;;9177300;19;20018;-60
2022/02/25 02:03:16;;;;;;;8.73;1.75;;;4.40;77.70;;;;;;9176609;19;20014;-62
2022/02/25 02:06:21;;;;;;;5.53;1.58;;;4.40;77.70;;;;;;9179824;19;20476;-62
2022/02/25 02:09:29;;;;;;;9.18;1.60;;;4.50;77.70;;;;;;9174206;19;20029;-62
2022/02/25 02:12:35;;;;;;;10.07;1.88;;;4.50;77.70;;;;;;9174295;19;20037;-64
2022/02/25 02:15:43;;;;;;;11.48;1.75;;;4.50;77.60;;;;;;9177385;19;20018;-62
2022/02/25 02:18:48;;;;;;;8.77;1.80;;;4.50;77.60;;;;;;9175527;19;20011;-60
2022/02/25 02:21:55;;;;;;;8.82;2.20;;;4.50;77.60;;;;;;9171600;19;20018;-63
2022/02/25 02:25:03;;;;;;;11.18;2.30;;;4.50;77.50;;;;;;9176487;19;20021;-62
2022/02/25 02:28:23;;;;;;;13.02;1.92;;;4.50;77.60;;;;;;9172174;19;20648;-61
2022/02/25 02:31:29;;;;;;;7.35;1.95;;;4.50;77.50;;;;;;9178079;19;20010;-62
2022/02/25 02:34:35;;;;;;;12.10;1.75;;;4.40;77.50;;;;;;9178866;19;20491;-63
2022/02/25 02:37:40;;;;;;;12.80;2.83;;;4.40;77.50;;;;;;9176474;19;20026;-62
2022/02/25 02:40:48;;;;;;;7.20;1.67;;;4.40;77.50;;;;;;9175021;19;20011;-63
2022/02/25 02:43:53;;;;;;;5.50;1.77;;;4.40;77.50;;;;;;9177579;19;20052;-61
2022/02/25 02:46:58;;;;;;;9.57;1.90;;;4.40;77.50;;;;;;9176047;19;20019;-61
2022/02/25 02:50:03;;;;;;;9.32;2.00;;;4.40;77.50;;;;;;9175772;19;20025;-61
2022/02/25 02:53:08;;;;;;;10.15;1.77;;;4.40;77.50;;;;;;9176023;19;20014;-62
2022/02/25 02:56:17;;;;;;;15.27;1.83;;;4.30;77.50;;;;;;9175140;19;20024;-63
2022/02/25 02:59:22;;;;;;;8.15;1.70;;;4.30;77.50;;;;;;9174138;19;20034;-60
2022/02/25 03:02:27;;;;;;;8.93;1.88;;;4.30;77.50;;;;;;9173966;19;20021;-62
2022/02/25 03:05:32;;;;;;;6.05;1.60;;;4.30;77.50;;;;;;9173271;19;20751;-62
2022/02/25 03:08:37;;;;;;;6.50;1.55;;;4.30;77.50;;;;;;9172882;19;20033;-61
2022/02/25 03:11:45;;;;;;;14.98;2.17;;;4.20;77.40;;;;;;9174980;19;20480;-61
2022/02/25 03:14:50;;;;;;;8.02;2.38;;;4.20;77.50;;;;;;9175935;19;20018;-63
2022/02/25 03:17:56;;;;;;;16.17;2.15;;;4.10;77.50;;;;;;9171565;19;20360;-61
2022/02/25 03:21:01;;;;;;;12.77;2.38;;;4.10;77.50;;;;;;9172751;19;20461;-63
2022/02/25 03:24:09;;;;;;;14.38;1.98;;;4.10;77.60;;;;;;9175872;19;20039;-62
2022/02/25 03:27:16;;;;;;;7.75;1.58;;;4.10;77.60;;;;;;9172839;19;20433;-68
2022/02/25 03:30:21;;;;;;;5.95;1.70;;;4.00;77.60;;;;;;9175937;19;20018;-61
2022/02/25 03:33:26;;;;;;;10.60;2.17;;;4.00;77.60;;;;;;9181613;19;20010;-63
2022/02/25 03:36:32;;;;;;;8.25;1.83;;;4.00;77.60;;;;;;9181699;19;20018;-61
2022/02/25 03:39:38;;;;;;;19.42;3.03;;;4.00;77.60;;;;;;9182714;19;20010;-61
2022/02/25 03:42:46;;;;;;;6.88;1.92;;;3.90;77.60;;;;;;9184931;19;20356;-63
2022/02/25 03:45:51;;;;;;;7.47;2.30;;;3.90;77.60;;;;;;9183554;19;20015;-63
2022/02/25 03:48:57;;;;;;;5.18;2.53;;;3.90;77.60;;;;;;9181717;19;20025;-62
2022/02/25 03:52:02;;;;;;;11.25;2.50;;;3.90;77.70;;;;;;9181954;19;20022;-63
2022/02/25 03:55:08;;;;;;;8.55;2.28;;;3.80;77.60;;;;;;9183100;19;20022;-60
2022/02/25 03:58:16;;;;;;;15.25;2.83;;;3.80;77.60;;;;;;9181394;19;20042;-63
2022/02/25 04:01:21;;;;;;;11.75;2.65;;;3.80;77.60;;;;;;9183249;19;20006;-62
2022/02/25 04:04:28;;;;;;;12.50;2.38;;;3.80;77.70;;;;;;9179399;19;20030;-62
2022/02/25 04:07:33;;;;;;;10.10;2.75;;;3.80;77.70;;;;;;9182461;19;20484;-62
2022/02/25 04:10:38;;;;;;;10.38;2.83;;;3.80;77.70;;;;;;9181388;19;20018;-61
2022/02/25 04:13:46;;;;;;;11.38;2.67;;;3.70;77.70;;;;;;9183414;19;20019;-61
2022/02/25 04:16:53;;;;;;;9.55;2.53;;;3.80;77.80;;;;;;9180886;19;20021;-63
2022/02/25 04:19:58;;;;;;;10.00;2.70;;;3.70;77.70;;;;;;9178696;19;20026;-62
2022/02/25 04:23:03;;;;;;;18.77;2.97;;;3.70;77.70;;;;;;9180906;19;20019;-64
2022/02/25 04:26:08;;;;;;;8.52;3.60;;;3.70;77.80;;;;;;9182356;19;20351;-62
2022/02/25 04:29:16;;;;;;;13.10;3.03;;;3.70;77.80;;;;;;9178367;19;20011;-63
2022/02/25 04:32:21;;;;;;;15.00;3.20;;;3.70;77.90;;;;;;9183470;19;20018;-62
2022/02/25 04:35:27;;;;;;;6.03;2.55;;;3.70;77.90;;;;;;9179879;19;20464;-62
2022/02/25 04:38:31;;;;;;;14.07;3.30;;;3.70;77.80;;;;;;9180659;19;20111;-62
2022/02/25 04:41:36;;;;;;;13.10;3.00;;;3.60;77.90;;;;;;9180162;19;20022;-62
2022/02/25 04:44:46;;;;;;;12.18;3.42;;;3.60;77.80;;;;;;9178237;19;20654;-63
2022/02/25 04:47:51;;;;;;;14.35;3.63;;;3.60;77.90;;;;;;9178931;19;20022;-63
2022/02/25 04:50:56;;;;;;;13.45;3.45;;;3.60;77.90;;;;;;9178944;19;20048;-61
2022/02/25 04:54:01;;;;;;;12.55;4.03;;;3.60;77.90;;;;;;9179589;19;20037;-62
2022/02/25 04:57:06;;;;;;;5.95;3.10;;;3.60;78.00;;;;;;9181371;19;20018;-62
2022/02/25 05:00:17;;;;;;;7.40;3.15;;;3.50;77.90;;;;;;9178562;19;20006;-62
2022/02/25 05:03:22;;;;;;;12.30;3.95;;;3.50;78.00;;;;;;9177824;19;20015;-62
2022/02/25 05:06:27;;;;;;;15.38;3.15;;;3.50;78.00;;;;;;9177655;19;20018;-63
2022/02/25 05:09:32;;;;;;;16.75;4.25;;;3.50;78.00;;;;;;9178968;19;20024;-64
2022/02/25 05:12:37;;;;;;;11.13;2.70;;;3.50;78.10;;;;;;9179256;19;20376;-63
2022/02/25 05:22:26;;;;;;;14.73;3.05;;;3.50;78.20;;;;;;9176674;19;20017;-61
2022/02/25 05:25:32;;;;;;;14.43;3.78;;;3.50;78.20;;;;;;9177369;19;20321;-61
2022/02/25 05:28:39;;;;;;;17.08;4.05;;;3.50;78.20;;;;;;9173743;19;20022;-61
2022/02/25 05:31:46;;;;;;;14.50;2.95;;;3.50;78.20;;;;;;9178674;19;20017;-61
2022/02/25 05:34:51;;;;;;;12.60;3.63;;;3.50;78.20;;;;;;9179909;19;20060;-61
2022/02/25 05:37:57;;;;;;;16.73;3.53;;;3.50;78.20;;;;;;9177327;19;20022;-63
2022/02/25 05:41:02;;;;;;;14.25;3.85;;;3.50;78.20;;;;;;9175862;19;20036;-62
2022/02/25 05:44:07;;;;;;;13.85;3.65;;;3.50;78.30;;;;;;9177335;19;20045;-61
2022/02/25 05:47:15;;;;;;;12.70;2.83;;;3.50;78.30;;;;;;9178539;19;20018;-62
2022/02/25 05:50:21;;;;;;;14.50;3.28;;;3.50;78.30;;;;;;9178043;19;20018;-61
2022/02/25 05:53:26;;;;;;;13.30;3.42;;;3.50;78.30;;;;;;9177245;19;20015;-62
2022/02/25 05:56:31;;;;;;;14.57;3.00;;;3.50;78.30;;;;;;9176280;19;20014;-61
2022/02/25 05:59:36;;;;;;;19.05;3.25;;;3.50;78.40;;;;;;9177205;19;20021;-62
2022/02/25 06:02:44;;;;;;;23.08;3.05;;;3.50;78.40;;;;;;9177736;19;20026;-62
2022/02/25 06:05:50;;;;;;;15.63;2.90;;;3.50;78.50;;;;;;9177560;19;20061;-62
2022/02/25 06:08:55;;;;;;;16.00;3.47;;;3.60;78.50;;;;;;9175420;19;20022;-62
2022/02/25 06:12:00;;;;;;;18.42;3.10;;;3.60;78.50;;;;;;9176828;19;20025;-62
2022/02/25 06:15:07;;;;;;;19.83;3.10;;;3.60;78.50;;;;;;9178676;19;20023;-62
2022/02/25 06:18:16;;;;;;;22.52;4.13;;;3.60;78.60;;;;;;9178074;19;20110;-61
2022/02/25 06:21:22;;;;;;;20.40;3.42;;;3.70;78.60;;;;;;9175395;19;20405;-64
2022/02/25 06:24:27;;;;;;;10.30;2.80;;;3.70;78.60;;;;;;9175638;19;20019;-64
2022/02/25 06:27:32;;;;;;;19.65;2.78;;;3.70;78.60;;;;;;9171383;19;20019;-62
2022/02/25 06:30:40;;;;;;;12.60;2.42;;;3.80;78.60;;;;;;9178141;19;20030;-60
2022/02/25 06:33:48;;;;;;;15.82;3.35;;;3.80;79.20;;;;;;9177403;19;20025;-64
2022/02/25 06:36:53;;;;;;;16.83;3.05;;;3.80;78.60;;;;;;9175885;19;20022;-61
2022/02/25 06:39:58;;;;;;;24.50;3.00;;;3.80;78.60;;;;;;9173754;19;20021;-62
2022/02/25 06:43:04;;;;;;;15.70;3.28;;;3.80;78.60;;;;;;9175784;19;20021;-63
2022/02/25 06:46:11;;;;;;;12.23;3.65;;;3.90;78.70;;;;;;9175925;19;20026;-62
2022/02/25 06:49:18;;;;;;;18.00;3.80;;;3.90;78.70;;;;;;9176457;19;20480;-61
2022/02/25 06:52:23;;;;;;;12.77;2.90;;;3.90;78.70;;;;;;9171564;19;20049;-62
2022/02/25 06:55:29;;;;;;;13.35;3.55;;;4.00;78.80;;;;;;9174472;19;20349;-62
2022/02/25 06:58:37;;;;;;;13.98;3.00;;;4.00;78.70;;;;;;9175319;19;20483;-62
2022/02/25 07:01:42;;;;;;;22.27;3.60;;;4.00;78.70;;;;;;9175403;19;20031;-62
2022/02/25 07:04:53;;;;;;;11.93;2.65;;;4.00;78.70;;;;;;9176889;19;20018;-64
2022/02/25 07:07:59;;;;;;;19.95;3.53;;;4.10;78.80;;;;;;9178819;19;20480;-61
2022/02/25 07:11:06;;;;;;;18.05;3.42;;;4.10;78.80;;;;;;9180105;19;20025;-62
2022/02/25 07:14:12;;;;;;;20.60;3.72;;;4.10;78.80;;;;;;9181545;19;20353;-61
2022/02/25 07:17:17;;;;;;;12.88;3.15;;;4.20;78.80;;;;;;9182032;19;20018;-63
2022/02/25 07:20:25;;;;;;;17.60;3.42;;;4.20;78.90;;;;;;9179572;19;20026;-63
2022/02/25 07:23:31;;;;;;;42.45;3.45;;;4.20;78.90;;;;;;9182740;19;20021;-61
2022/02/25 07:26:36;;;;;;;21.42;4.00;;;4.20;78.90;;;;;;9182764;19;20103;-60
2022/02/25 07:29:41;;;;;;;22.00;2.95;;;4.20;79.00;;;;;;9178314;19;20014;-63
2022/02/25 07:32:46;;;;;;;13.20;3.47;;;4.30;79.00;;;;;;9185369;19;20030;-62
2022/02/25 07:35:55;;;;;;;11.00;3.17;;;4.30;79.00;;;;;;9184666;19;20017;-61
2022/02/25 07:39:01;;;;;;;27.73;3.85;;;4.30;79.00;;;;;;9180421;19;20021;-61
2022/02/25 07:42:07;;;;;;;15.07;3.75;;;4.30;79.00;;;;;;9182215;19;20010;-62
2022/02/25 07:45:12;;;;;;;21.27;3.30;;;4.40;79.10;;;;;;9181948;19;20038;-61
2022/02/25 07:48:17;;;;;;;20.48;3.40;;;4.40;79.10;;;;;;9182093;19;20015;-62
2022/02/25 07:51:26;;;;;;;12.52;3.50;;;4.40;79.10;;;;;;9183334;19;20862;-62
2022/02/25 07:54:33;;;;;;;22.90;3.85;;;4.50;79.20;;;;;;9180682;19;20015;-61
2022/02/25 07:57:38;;;;;;;25.67;3.65;;;4.50;79.20;;;;;;9182057;19;20047;-61
2022/02/25 08:01:01;;;;;;;9.75;2.85;;;4.50;79.20;;;;;;9179971;19;20022;-63
2022/02/25 08:04:07;;;;;;;18.25;4.32;;;4.50;79.20;;;;;;9183058;19;20060;-62
2022/02/25 08:07:15;;;;;;;19.70;3.50;;;4.60;79.30;;;;;;9183757;19;20354;-61
2022/02/25 08:10:20;;;;;;;14.27;3.55;;;4.60;79.30;;;;;;9171226;19;20050;-65
2022/02/25 08:13:25;;;;;;;18.48;4.72;;;4.60;79.30;;;;;;9174536;19;20018;-60
2022/02/25 08:16:30;;;;;;;21.08;4.13;;;4.70;79.40;;;;;;9177846;19;20082;-62
2022/02/25 08:19:35;;;;;;;15.82;3.80;;;4.70;80.00;;;;;;9176900;19;20027;-63
2022/02/25 08:22:43;;;;;;;18.70;4.20;;;4.70;79.40;;;;;;9181941;19;20103;-61
2022/02/25 08:25:48;;;;;;;18.73;4.40;;;4.80;79.50;;;;;;9178962;19;20047;-62
2022/02/25 08:28:55;;;;;;;17.75;3.58;;;4.80;79.50;;;;;;9175993;19;20025;-62
2022/02/25 08:32:01;;;;;;;14.95;3.90;;;4.90;79.60;;;;;;9182106;19;20780;-64
2022/02/25 08:35:08;;;;;;;18.08;5.68;;;4.90;79.60;;;;;;9181482;19;20598;-62
2022/02/25 08:38:17;;;;;;;14.20;3.28;;;5.00;79.80;;;;;;9182079;19;20686;-61
2022/02/25 08:41:22;;;;;;;27.13;5.22;;;5.00;79.80;;;;;;9177182;19;20026;-63
2022/02/25 08:44:27;;;;;;;12.77;4.13;;;5.10;79.90;;;;;;9179135;19;20015;-61
2022/02/25 08:47:32;;;;;;;15.23;3.85;;;5.20;79.90;;;;;;9179861;19;20349;-65
2022/02/25 08:50:37;;;;;;;15.15;3.83;;;5.30;80.00;;;;;;9181977;19;20018;-62
2022/02/25 08:53:45;;;;;;;14.73;3.78;;;5.30;79.90;;;;;;9182730;19;20022;-62
2022/02/25 08:56:50;;;;;;;20.02;3.50;;;5.40;79.90;;;;;;9180063;19;20018;-63
2022/02/25 08:59:55;;;;;;;12.27;3.83;;;5.50;79.90;;;;;;9174868;19;20492;-62
2022/02/25 09:03:00;;;;;;;19.08;4.28;;;5.50;79.90;;;;;;9174138;19;20472;-62
2022/02/25 09:06:05;;;;;;;21.00;4.35;;;5.60;79.90;;;;;;9173888;19;20006;-62
2022/02/25 09:09:13;;;;;;;14.35;3.38;;;5.70;80.10;;;;;;9172364;19;20045;-64
2022/02/25 09:12:21;;;;;;;21.88;4.22;;;5.80;80.20;;;;;;9171578;19;20032;-63
2022/02/25 09:15:28;;;;;;;26.88;4.05;;;5.90;80.20;;;;;;9172335;19;20022;-62
2022/02/25 09:18:33;;;;;;;23.05;4.13;;;6.00;80.20;;;;;;9170561;19;20636;-65
2022/02/25 09:21:38;;;;;;;24.80;3.80;;;6.10;80.30;;;;;;9171239;19;20431;-63
2022/02/25 09:24:46;;;;;;;19.55;3.45;;;6.20;80.20;;;;;;9169890;19;20014;-64
2022/02/25 09:27:51;;;;;;;16.70;3.60;;;6.30;80.20;;;;;;9167409;19;20043;-63
2022/02/25 09:30:56;;;;;;;22.30;2.72;;;6.40;80.30;;;;;;9167946;19;20030;-63
2022/02/25 09:34:01;;;;;;;22.23;3.08;;;6.50;80.40;;;;;;9170547;19;20026;-64
2022/02/25 09:37:07;;;;;;;17.90;2.75;;;6.60;80.60;;;;;;9172132;19;20029;-64
2022/02/25 09:40:18;;;;;;;19.08;3.08;;;6.80;80.60;;;;;;9170240;19;20364;-64
2022/02/25 09:43:24;;;;;;;18.27;2.88;;;7.00;80.70;;;;;;9172835;19;20025;-63
2022/02/25 09:46:29;;;;;;;17.60;2.95;;;7.10;80.70;;;;;;9169012;19;20010;-63
2022/02/25 09:49:35;;;;;;;25.63;3.70;;;7.30;80.70;;;;;;9174862;19;20787;-62
2022/02/25 09:52:41;;;;;;;19.38;3.72;;;7.40;80.50;;;;;;9178137;19;20111;-63
2022/02/25 09:55:49;;;;;;;19.88;2.75;;;7.60;80.60;;;;;;9172734;19;20015;-63
2022/02/25 09:58:54;;;;;;;23.33;3.38;;;7.70;80.50;;;;;;9177266;19;20476;-63
2022/02/25 10:02:05;;;;;;;14.85;2.47;;;7.90;80.50;;;;;;9176170;19;20021;-63
2022/02/25 10:05:12;;;;;;;23.27;2.83;;;8.10;80.40;;;;;;9178083;19;20513;-63
2022/02/25 10:08:19;;;;;;;15.68;2.55;;;8.20;80.30;;;;;;9179355;19;20022;-62
2022/02/25 10:11:27;;;;;;;8.82;2.08;;;8.40;80.20;;;;;;9171282;19;20377;-62
2022/02/25 10:14:36;;;;;;;11.73;2.20;;;8.60;80.50;;;;;;9170475;19;20025;-62
2022/02/25 10:17:41;;;;;;;5.28;1.38;;;8.60;79.40;;;;;;9167410;19;20052;-62
2022/02/25 10:20:48;;;;;;;4.28;1.05;;;8.70;79.20;;;;;;9171412;19;20019;-63
2022/02/25 10:23:53;;;;;;;15.50;1.70;;;8.70;78.90;;;;;;9171067;19;20492;-63
2022/02/25 10:27:01;;;;;;;7.25;1.02;;;8.70;78.80;;;;;;9172144;19;20029;-63
2022/02/25 10:30:10;;;;;;;8.48;1.45;;;8.70;78.60;;;;;;9171552;19;20015;-62
2022/02/25 10:33:15;;;;;;;7.53;1.23;;;8.60;78.40;;;;;;9168881;19;20043;-62
2022/02/25 10:36:29;;;;;;;5.82;1.33;;;8.50;78.20;;;;;;9171196;19;20030;-64
2022/02/25 10:39:36;;;;;;;5.30;2.15;;;8.40;78.20;;;;;;9170501;19;20025;-64
2022/02/25 10:42:45;;;;;;;7.20;1.80;;;8.30;78.30;;;;;;9171737;19;20483;-65
2022/02/25 10:45:53;;;;;;;11.50;1.80;;;8.20;78.20;;;;;;9178139;19;20019;-63
2022/02/25 10:49:07;;;;;;;5.35;1.38;;;8.10;78.30;;;;;;9178035;19;20018;-62
2022/02/25 10:52:24;;;;;;;10.68;2.15;;;8.00;78.40;;;;;;9179937;19;20022;-63
2022/02/25 10:55:30;;;;;;;13.77;1.92;;;8.00;78.60;;;;;;9181824;19;20028;-63
2022/02/25 10:58:45;;;;;;;12.02;2.25;;;7.90;78.70;;;;;;9180736;19;20082;-64
2022/02/25 11:01:51;;;;;;;12.05;1.92;;;7.90;78.90;;;;;;9174407;19;20051;-63
2022/02/25 11:05:06;;;;;;;15.10;2.25;;;7.80;79.00;;;;;;9177614;19;20023;-64
2022/02/25 11:08:11;;;;;;;10.20;2.33;;;7.80;79.10;;;;;;9179812;19;20015;-62
2022/02/25 11:11:17;;;;;;;13.20;2.28;;;7.90;79.20;;;;;;9179493;19;20025;-65
2022/02/25 11:14:25;;;;;;;17.95;2.70;;;7.90;79.20;;;;;;9176486;19;20019;-64
2022/02/25 11:17:30;;;;;;;23.67;3.88;;;7.90;79.20;;;;;;9177116;19;20026;-63
2022/02/25 11:20:43;;;;;;;18.33;3.17;;;7.90;79.20;;;;;;9178021;19;20138;-63
2022/02/25 11:23:49;;;;;;;23.70;3.40;;;7.90;79.20;;;;;;9178726;19;20034;-63
2022/02/25 11:26:54;;;;;;;22.25;3.20;;;7.90;79.30;;;;;;9179246;19;20015;-63
2022/02/25 11:30:06;;;;;;;23.60;4.20;;;7.90;79.40;;;;;;9171965;19;20023;-62
2022/02/25 11:33:13;;;;;;;18.80;3.33;;;8.00;79.60;;;;;;9176401;19;20112;-65
2022/02/25 11:36:18;;;;;;;21.45;3.10;;;8.10;79.60;;;;;;9178777;19;20021;-64
2022/02/25 11:39:25;;;;;;;24.05;3.22;;;8.20;79.70;;;;;;9178438;19;20484;-64
2022/02/25 11:42:30;;;;;;;23.20;2.83;;;8.30;79.70;;;;;;9176777;19;20018;-64
2022/02/25 11:45:50;;;;;;;22.95;2.53;;;8.40;79.70;;;;;;9177368;19;20078;-62
2022/02/25 11:48:58;;;;;;;22.17;2.90;;;8.50;79.60;;;;;;9173843;19;20015;-64
2022/02/25 11:52:08;;;;;;;21.45;3.00;;;8.60;79.50;;;;;;9174897;19;20056;-65
2022/02/25 11:55:25;;;;;;;10.85;2.28;;;8.70;79.30;;;;;;9177403;19;20018;-63
2022/02/25 11:58:44;;;;;;;18.15;2.63;;;8.80;79.00;;;;;;9179481;19;20019;-63
2022/02/25 12:02:09;;;;;;;19.67;2.67;;;8.90;78.80;;;;;;9175941;19;20018;-65
2022/02/25 12:05:18;;;;;;;15.52;2.35;;;9.00;78.70;;;;;;9173774;19;20021;-64
2022/02/25 12:08:32;;;;;;;12.48;2.47;;;9.10;78.70;;;;;;9174635;19;20341;-63
2022/02/25 12:11:37;;;;;;;19.95;2.88;;;9.20;78.70;;;;;;9177790;19;20018;-63
2022/02/25 12:15:00;;;;;;;16.98;2.58;;;9.20;78.50;;;;;;9177038;19;20053;-65
2022/02/25 12:18:10;;;;;;;19.60;2.50;;;9.30;78.20;;;;;;9178943;19;20018;-63
2022/02/25 12:21:44;;;;;;;11.32;2.38;;;9.30;78.10;;;;;;9179746;19;20033;-64
2022/02/25 12:24:55;;;;;;;27.83;4.50;;;9.30;77.80;;;;;;9175877;19;20021;-65
2022/02/25 12:28:05;;;;;;;15.18;2.70;;;9.30;77.70;;;;;;9171216;19;20659;-62
2022/02/25 12:31:13;;;;;;;18.20;2.60;;;9.30;77.60;;;;;;9173972;19;20015;-62
2022/02/25 12:34:29;;;;;;;20.45;2.33;;;9.30;77.60;;;;;;9176431;19;20326;-63
2022/02/25 12:37:34;;;;;;;16.40;3.08;;;9.30;77.50;;;;;;9177026;19;20014;-62
2022/02/25 12:40:39;;;;;;;15.23;2.63;;;9.20;77.40;;;;;;9176451;19;20029;-64
2022/02/25 12:43:53;;;;;;;19.48;2.50;;;9.20;77.30;;;;;;9173688;19;20025;-63
2022/02/25 12:47:00;;;;;;;23.17;3.83;;;9.10;77.20;;;;;;9173533;19;20026;-62
2022/02/25 12:50:10;;;;;;;12.90;2.30;;;9.00;77.30;;;;;;9176459;19;20018;-63
2022/02/25 12:53:15;;;;;;;16.88;2.58;;;9.00;77.30;;;;;;9176252;19;20026;-62
2022/02/25 12:56:25;;;;;;;9.07;2.28;;;8.90;77.30;;;;;;9177069;19;20350;-62
2022/02/25 12:59:36;;;;;;;12.05;1.67;;;8.80;77.40;;;;;;9171954;19;20114;-63
2022/02/25 13:02:41;;;;;;;10.13;2.33;;;8.80;77.40;;;;;;9174472;19;20014;-61
2022/02/25 13:05:57;;;;;;;5.82;1.45;;;8.70;77.40;;;;;;9173447;19;20014;-62
2022/02/25 13:09:02;;;;;;;2.70;1.02;;;8.60;77.30;;;;;;9175092;19;20018;-61
2022/02/25 13:12:14;;;;;;;3.63;0.80;;;8.50;77.40;;;;;;9175644;19;20010;-63
2022/02/25 13:15:19;;;;;;;4.70;1.02;;;8.40;77.40;;;;;;9173986;19;20025;-61
2022/02/25 13:18:24;;;;;;;3.20;0.95;;;8.30;77.40;;;;;;9174566;19;20110;-63
2022/02/25 13:21:32;;;;;;;3.40;0.70;;;8.30;77.60;;;;;;9173471;19;20026;-61
2022/02/25 13:24:39;;;;;;;2.78;0.60;;;8.20;77.50;;;;;;9172419;19;20020;-62
2022/02/25 13:27:47;;;;;;;2.70;0.90;;;8.10;77.50;;;;;;9170758;19;20529;-62
2022/02/25 13:30:53;;;;;;;0.55;0.45;;;8.10;77.50;;;;;;9171702;19;20019;-64
2022/02/25 13:33:58;;;;;;;1.95;0.55;;;8.10;77.60;;;;;;9172075;19;20025;-60
2022/02/25 13:37:06;;;;;;;3.95;0.70;;;8.10;77.60;;;;;;9173758;19;20147;-64
2022/02/25 13:40:34;;;;;;;7.63;0.60;;;8.00;77.70;;;;;;9174236;19;20018;-62
2022/02/25 13:44:00;;;;;;;5.43;1.00;;;8.00;77.60;;;;;;9171376;19;20014;-65
2022/02/25 13:53:48;;;;;;;8.27;1.60;;;8.00;77.80;;;;;;9170767;19;20033;-63
2022/02/25 13:56:55;;;;;;;6.03;0.88;;;8.00;77.80;;;;;;9170679;19;20026;-61
2022/02/25 14:00:02;;;;;;;9.15;1.00;;;8.10;77.90;;;;;;9171192;19;20011;-64
2022/02/25 14:03:16;;;;;;;8.73;1.33;;;8.10;77.90;;;;;;9173956;19;20011;-64
2022/02/25 14:06:29;;;;;;;4.95;1.35;;;8.10;77.80;;;;;;9173076;19;20098;-63
2022/02/25 14:09:40;;;;;;;7.27;1.30;;;8.10;77.80;;;;;;9170753;19;20018;-64
2022/02/25 14:12:46;;;;;;;5.45;1.02;;;8.10;77.80;;;;;;9170951;19;20021;-65
2022/02/25 14:15:51;;;;;;;13.85;1.67;;;8.10;77.80;;;;;;9171353;19;20018;-63
2022/02/25 14:18:56;;;;;;;10.02;1.55;;;8.20;77.90;;;;;;9171924;19;20051;-62
2022/02/25 14:22:13;;;;;;;14.70;2.05;;;8.20;77.90;;;;;;9174711;19;20016;-63
2022/02/25 14:25:27;;;;;;;10.15;1.58;;;8.30;77.90;;;;;;9168774;19;20019;-62
2022/02/25 14:28:35;;;;;;;8.52;1.17;;;8.30;77.90;;;;;;9167609;19;20014;-64
2022/02/25 14:31:40;;;;;;;8.05;1.65;;;8.40;77.90;;;;;;9172544;19;20019;-63
2022/02/25 14:34:48;;;;;;;10.70;1.65;;;8.50;77.90;;;;;;9171972;19;20430;-67
2022/02/25 14:37:54;;;;;;;7.88;1.45;;;8.50;77.70;;;;;;9172335;19;20014;-64
2022/02/25 14:41:02;;;;;;;7.07;2.10;;;8.50;77.50;;;;;;9169982;19;20034;-62
2022/02/25 14:44:14;;;;;;;10.57;1.95;;;8.50;77.20;;;;;;9170796;19;20018;-64
2022/02/25 14:47:19;;;;;;;7.40;0.88;;;8.50;77.10;;;;;;9169421;19;20025;-64
2022/02/25 14:50:25;;;;;;;6.53;1.33;;;8.50;77.00;;;;;;9170961;19;20025;-61
2022/02/25 14:53:31;;;;;;;8.00;1.30;;;8.40;76.90;;;;;;9172129;19;20367;-63
2022/02/25 14:56:43;;;;;;;10.00;1.52;;;8.40;77.00;;;;;;9168535;19;20480;-61
2022/02/25 14:59:48;;;;;;;9.32;1.55;;;8.40;77.10;;;;;;9166890;19;20025;-63
2022/02/25 15:02:55;;;;;;;6.43;1.02;;;8.30;77.10;;;;;;9169610;19;20018;-62
2022/02/25 15:06:01;;;;;;;9.80;1.30;;;8.30;77.10;;;;;;9169219;19;20169;-63
2022/02/25 15:09:06;;;;;;;6.65;1.38;;;8.20;77.10;;;;;;9171535;19;20029;-62
2022/02/25 15:12:14;;;;;;;5.85;1.48;;;8.20;77.10;;;;;;9168251;19;20023;-61
2022/02/25 15:15:21;;;;;;;12.40;1.58;;;8.20;77.10;;;;;;9170231;19;20029;-63
2022/02/25 15:18:26;;;;;;;9.65;1.38;;;8.20;77.20;;;;;;9168115;19;20023;-64
2022/02/25 15:21:31;;;;;;;4.70;1.23;;;8.20;77.20;;;;;;9169477;19;20025;-63
2022/02/25 15:24:37;;;;;;;6.70;1.73;;;8.10;77.20;;;;;;9166146;19;20022;-63
2022/02/25 15:27:46;;;;;;;6.97;1.63;;;8.10;77.80;;;;;;9164998;19;20026;-64
2022/02/25 15:30:51;;;;;;;16.77;2.03;;;8.10;77.20;;;;;;9178497;19;20022;-62
2022/02/25 15:33:56;;;;;;;7.32;1.40;;;8.10;77.20;;;;;;9180027;19;20402;-64
2022/02/25 15:37:06;;;;;;;10.20;2.45;;;8.10;77.20;;;;;;9179506;19;20078;-63
2022/02/25 15:40:13;;;;;;;9.40;1.95;;;8.10;77.20;;;;;;9181413;19;20483;-63
2022/02/25 15:43:21;;;;;;;10.93;2.17;;;8.10;77.20;;;;;;9176334;19;20010;-63
2022/02/25 15:46:38;;;;;;;11.48;2.50;;;8.00;77.10;;;;;;9176616;19;20015;-62
2022/02/25 15:49:44;;;;;;;8.13;1.58;;;8.00;77.10;;;;;;9178329;19;20703;-62
2022/02/25 15:52:50;;;;;;;12.45;1.80;;;8.00;77.10;;;;;;9178714;19;20377;-63
2022/02/25 15:55:55;;;;;;;13.27;3.33;;;8.00;77.20;;;;;;9181198;19;20497;-62
2022/02/25 15:59:03;;;;;;;7.57;1.67;;;8.00;77.20;;;;;;9175066;19;20499;-61
2022/02/25 16:02:08;;;;;;;10.35;1.92;;;8.00;77.20;;;;;;9175469;19;20022;-66
2022/02/25 16:05:13;;;;;;;17.58;2.15;;;8.00;77.30;;;;;;9175049;19;20369;-63
2022/02/25 16:08:19;;;;;;;15.27;1.92;;;8.10;77.40;;;;;;9177579;19;20026;-63
2022/02/25 16:11:25;;;;;;;12.32;2.20;;;8.10;77.40;;;;;;9179371;19;20028;-61
2022/02/25 16:14:33;;;;;;;13.05;2.60;;;8.10;77.30;;;;;;9175661;19;20499;-63
2022/02/25 16:17:39;;;;;;;11.50;1.65;;;8.10;77.30;;;;;;9175992;19;20085;-63
2022/02/25 16:20:45;;;;;;;14.27;2.45;;;8.10;77.20;;;;;;9176448;19;20026;-63
2022/02/25 16:23:51;;;;;;;12.18;2.10;;;8.20;77.30;;;;;;9177622;19;20053;-63
2022/02/25 16:26:56;;;;;;;11.48;2.58;;;8.10;77.10;;;;;;9176697;19;20015;-63
2022/02/25 16:30:04;;;;;;;12.00;1.83;;;8.10;77.20;;;;;;9169195;19;20014;-62
2022/02/25 16:33:09;;;;;;;21.63;2.38;;;8.10;77.10;;;;;;9174534;19;20029;-63